createdAt,value
2022-12-25T00:01:57.528Z,2.40
2022-12-25T00:04:25.653Z,2.30
2022-12-25T00:06:53.740Z,2.20
2022-12-25T00:09:21.724Z,2.10
2022-12-25T00:11:49.748Z,2.00
2022-12-25T00:14:19.110Z,2.00
2022-12-25T00:16:47.347Z,1.90
2022-12-25T00:19:15.356Z,1.90
2022-12-25T00:21:43.315Z,1.80
2022-12-25T00:24:11.689Z,1.80
2022-12-25T00:26:40.381Z,1.70
2022-12-25T00:29:08.374Z,1.70
2022-12-25T00:31:38.402Z,1.70
2022-12-25T00:34:06.499Z,1.70
2022-12-25T00:36:41.176Z,1.60
2022-12-25T00:39:09.931Z,1.60
2022-12-25T00:41:55.266Z,1.50
2022-12-25T00:44:23.313Z,1.40
2022-12-25T00:46:52.801Z,1.40
2022-12-25T00:49:23.836Z,1.40
2022-12-25T00:51:52.800Z,1.30
2022-12-25T00:54:21.609Z,1.30
2022-12-25T00:56:49.635Z,1.20
2022-12-25T00:59:17.639Z,1.20
2022-12-25T01:01:45.859Z,1.20
2022-12-25T01:04:15.437Z,1.10
2022-12-25T01:06:43.616Z,1.10
2022-12-25T01:09:28.930Z,1.10
2022-12-25T01:11:56.976Z,1.00
2022-12-25T01:14:24.953Z,1.00
2022-12-25T01:16:52.986Z,1.00
2022-12-25T01:19:22.642Z,1.00
2022-12-25T01:21:50.737Z,0.90
2022-12-25T01:24:18.853Z,0.90
2022-12-25T01:26:46.916Z,0.90
2022-12-25T01:29:14.879Z,0.90
2022-12-25T01:31:43.044Z,0.80
2022-12-25T01:34:11.165Z,0.80
2022-12-25T01:36:40.639Z,0.80
2022-12-25T01:39:08.789Z,0.70
2022-12-25T01:41:36.876Z,0.80
2022-12-25T01:44:07.986Z,0.80
2022-12-25T01:46:37.014Z,0.70
2022-12-25T01:49:09.200Z,0.70
2022-12-25T01:51:42.387Z,0.70
2022-12-25T01:54:14.704Z,0.60
2022-12-25T01:56:43.655Z,0.60
2022-12-25T01:59:13.216Z,0.50
2022-12-25T02:01:41.732Z,0.50
2022-12-25T02:04:18.755Z,0.40
2022-12-25T02:06:49.649Z,0.40
2022-12-25T02:09:18.084Z,0.40
2022-12-25T02:11:59.037Z,0.40
2022-12-25T02:14:30.238Z,0.40
2022-12-25T02:17:07.776Z,0.40
2022-12-25T02:19:58.984Z,0.30
2022-12-25T02:22:39.464Z,0.30
2022-12-25T02:25:21.680Z,0.30
2022-12-25T02:28:07.646Z,0.20
2022-12-25T02:30:40.136Z,0.20
2022-12-25T02:33:32.659Z,0.20
2022-12-25T02:36:05.466Z,0.10
2022-12-25T02:38:38.188Z,0.10
2022-12-25T02:41:11.648Z,0.10
2022-12-25T02:44:02.187Z,0.10
2022-12-25T02:46:51.613Z,0.00
2022-12-25T02:49:40.948Z,0.00
2022-12-25T02:52:30.716Z,-0.10
2022-12-25T02:55:21.759Z,-0.10
2022-12-25T02:58:10.773Z,0.00
2022-12-25T03:01:09.815Z,0.00
2022-12-25T03:03:59.667Z,-0.10
2022-12-25T03:06:45.817Z,-0.10
2022-12-25T03:09:41.669Z,-0.10
2022-12-25T03:12:16.806Z,-0.10
2022-12-25T03:15:03.419Z,-0.20
2022-12-25T03:17:34.391Z,-0.20
2022-12-25T03:20:20.282Z,-0.20
2022-12-25T03:23:06.171Z,-0.20
2022-12-25T03:25:51.958Z,-0.30
2022-12-25T03:28:20.117Z,-0.30
2022-12-25T03:31:13.089Z,-0.30
2022-12-25T03:34:43.917Z,-0.40
2022-12-25T03:37:45.020Z,-0.40
2022-12-25T03:40:40.261Z,-0.40
2022-12-25T03:43:32.527Z,-0.40
2022-12-25T03:46:28.725Z,-0.40
2022-12-25T03:49:22.537Z,-0.40
2022-12-25T03:52:12.431Z,-0.50
2022-12-25T03:54:59.612Z,-0.50
2022-12-25T03:57:45.186Z,-0.50
2022-12-25T04:00:31.737Z,-0.50
2022-12-25T04:03:17.525Z,-0.40
2022-12-25T04:06:03.159Z,-0.40
2022-12-25T04:08:50.150Z,-0.40
2022-12-25T04:11:35.659Z,-0.40
2022-12-25T04:14:21.095Z,-0.40
2022-12-25T04:17:06.524Z,-0.40
2022-12-25T04:19:51.793Z,-0.50
2022-12-25T04:22:37.441Z,-0.50
2022-12-25T04:25:25.389Z,-0.50
2022-12-25T04:28:10.784Z,-0.50
2022-12-25T04:30:56.424Z,-0.50
2022-12-25T04:33:41.763Z,-0.50
2022-12-25T04:36:10.247Z,-0.50
2022-12-25T04:38:39.688Z,-0.50
2022-12-25T04:41:10.010Z,-0.50
2022-12-25T04:43:38.906Z,-0.40
2022-12-25T04:46:07.403Z,-0.50
2022-12-25T04:48:36.765Z,-0.50
2022-12-25T04:51:16.260Z,-0.50
2022-12-25T04:53:45.111Z,-0.50
2022-12-25T04:56:15.141Z,-0.50
2022-12-25T04:58:43.477Z,-0.50
2022-12-25T05:01:12.386Z,-0.50
2022-12-25T05:03:40.832Z,-0.50
2022-12-25T05:06:09.344Z,-0.50
2022-12-25T05:08:37.944Z,-0.50
2022-12-25T05:11:10.557Z,-0.50
2022-12-25T05:13:40.619Z,-0.50
2022-12-25T05:16:10.165Z,-0.50
2022-12-25T05:18:38.230Z,-0.40
2022-12-25T05:21:07.950Z,-0.40
2022-12-25T05:23:36.137Z,-0.40
2022-12-25T05:26:06.023Z,-0.40
2022-12-25T05:28:35.447Z,-0.40
2022-12-25T05:31:04.877Z,-0.40
2022-12-25T05:33:32.893Z,-0.40
2022-12-25T05:36:03.656Z,-0.40
2022-12-25T05:38:31.720Z,-0.40
2022-12-25T05:40:59.822Z,-0.40
2022-12-25T05:43:28.241Z,-0.40
2022-12-25T05:45:56.735Z,-0.40
2022-12-25T05:48:26.121Z,-0.20
2022-12-25T05:50:54.137Z,-0.40
2022-12-25T05:53:22.109Z,-0.40
2022-12-25T05:55:50.151Z,-0.50
2022-12-25T05:58:18.126Z,-0.50
2022-12-25T06:00:46.249Z,-0.50
2022-12-25T06:03:14.458Z,-0.50
2022-12-25T06:05:44.001Z,-0.50
2022-12-25T06:08:12.074Z,-0.50
2022-12-25T06:10:40.069Z,-0.50
2022-12-25T06:13:08.235Z,-0.50
2022-12-25T06:15:39.328Z,-0.50
2022-12-25T06:18:07.447Z,-0.50
2022-12-25T06:20:35.809Z,-0.50
2022-12-25T06:23:05.282Z,-0.50
2022-12-25T06:25:33.299Z,-0.50
2022-12-25T06:28:01.409Z,-0.50
2022-12-25T06:30:29.402Z,-0.50
2022-12-25T06:32:57.486Z,-0.50
2022-12-25T06:35:25.565Z,-0.50
2022-12-25T06:37:53.773Z,-0.50
2022-12-25T06:40:23.188Z,-0.50
2022-12-25T06:42:52.535Z,-0.40
2022-12-25T06:45:20.526Z,-0.50
2022-12-25T06:47:48.472Z,-0.40
2022-12-25T06:50:16.383Z,-0.50
2022-12-25T06:52:44.436Z,-0.50
2022-12-25T06:55:12.462Z,-0.50
2022-12-25T06:57:41.845Z,-0.50
2022-12-25T07:00:10.962Z,-0.40
2022-12-25T07:02:39.621Z,-0.40
2022-12-25T07:05:08.445Z,-0.40
2022-12-25T07:07:36.417Z,-0.50
2022-12-25T07:10:04.567Z,-0.40
2022-12-25T07:12:32.596Z,-0.40
2022-12-25T07:15:02.029Z,-0.40
2022-12-25T07:17:29.974Z,-0.40
2022-12-25T07:19:57.869Z,-0.40
2022-12-25T07:22:25.839Z,-0.40
2022-12-25T07:24:53.835Z,-0.30
2022-12-25T07:27:21.767Z,-0.30
2022-12-25T07:29:50.045Z,-0.30
2022-12-25T07:32:19.315Z,-0.20
2022-12-25T07:34:47.308Z,-0.20
2022-12-25T07:37:15.145Z,-0.10
2022-12-25T07:39:42.914Z,0.00
2022-12-25T07:42:10.869Z,0.00
2022-12-25T07:44:38.834Z,0.10
2022-12-25T07:47:06.746Z,0.10
2022-12-25T07:49:37.231Z,0.20
2022-12-25T07:52:05.621Z,0.30
2022-12-25T07:54:33.759Z,0.30
2022-12-25T07:57:01.726Z,0.40
2022-12-25T07:59:29.790Z,0.40
2022-12-25T08:01:58.032Z,0.50
2022-12-25T08:04:26.151Z,0.50
2022-12-25T08:06:55.597Z,0.60
2022-12-25T08:09:23.714Z,0.60
2022-12-25T08:11:51.736Z,0.70
2022-12-25T08:14:19.834Z,0.70
2022-12-25T08:16:47.943Z,0.70
2022-12-25T08:19:15.971Z,0.80
2022-12-25T08:21:43.919Z,0.80
2022-12-25T08:24:13.298Z,0.90
2022-12-25T08:26:41.305Z,0.90
2022-12-25T08:29:09.359Z,0.90
2022-12-25T08:31:44.067Z,1.00
2022-12-25T08:34:14.505Z,1.00
2022-12-25T08:36:43.118Z,1.10
2022-12-25T08:39:11.170Z,1.10
2022-12-25T08:41:40.700Z,1.10
2022-12-25T08:44:08.797Z,1.20
2022-12-25T08:46:36.853Z,1.20
2022-12-25T08:49:04.906Z,1.30
2022-12-25T08:51:33.039Z,1.30
2022-12-25T08:54:01.912Z,1.40
2022-12-25T08:56:30.244Z,1.50
2022-12-25T08:58:59.659Z,1.50
2022-12-25T09:01:27.752Z,1.60
2022-12-25T09:03:55.805Z,1.60
2022-12-25T09:06:27.015Z,1.70
2022-12-25T09:08:55.042Z,1.80
2022-12-25T09:11:23.753Z,1.90
2022-12-25T09:13:54.446Z,1.90
2022-12-25T09:16:24.445Z,2.00
2022-12-25T09:18:52.541Z,2.10
2022-12-25T09:21:20.876Z,2.10
2022-12-25T09:23:48.989Z,2.10
2022-12-25T09:26:20.097Z,2.20
2022-12-25T09:28:51.953Z,2.30
2022-12-25T09:31:21.385Z,2.30
2022-12-25T09:33:51.101Z,2.40
2022-12-25T09:36:21.421Z,2.40
2022-12-25T09:38:49.573Z,2.50
2022-12-25T09:41:22.072Z,2.50
2022-12-25T09:43:54.584Z,2.50
2022-12-25T09:46:30.232Z,2.60
2022-12-25T09:49:07.253Z,2.60
2022-12-25T09:51:38.569Z,2.60
2022-12-25T09:54:15.592Z,2.70
2022-12-25T09:56:43.787Z,2.80
2022-12-25T09:59:19.536Z,2.90
2022-12-25T10:02:02.399Z,3.00
2022-12-25T10:04:55.696Z,3.10
2022-12-25T10:07:30.015Z,3.10
2022-12-25T10:10:07.660Z,3.10
2022-12-25T10:12:49.435Z,3.10
2022-12-25T10:15:31.315Z,3.20
2022-12-25T10:18:23.613Z,3.30
2022-12-25T10:20:56.319Z,3.30
2022-12-25T10:23:29.642Z,3.40
2022-12-25T10:25:57.857Z,3.40
2022-12-25T10:28:33.788Z,3.50
2022-12-25T10:31:09.163Z,3.60
2022-12-25T10:33:37.925Z,3.70
2022-12-25T10:36:09.771Z,3.80
2022-12-25T10:38:37.903Z,3.90
2022-12-25T10:41:20.121Z,3.90
2022-12-25T10:43:51.761Z,4.00
2022-12-25T10:46:21.594Z,4.10
2022-12-25T10:48:52.846Z,4.20
2022-12-25T10:51:37.417Z,4.30
2022-12-25T10:54:23.539Z,4.30
2022-12-25T10:56:59.309Z,4.30
2022-12-25T10:59:30.272Z,4.30
2022-12-25T11:02:06.179Z,4.30
2022-12-25T11:04:36.561Z,4.40
2022-12-25T11:07:14.556Z,4.40
2022-12-25T11:09:51.829Z,4.50
2022-12-25T11:12:21.741Z,4.60
2022-12-25T11:14:58.701Z,4.80
2022-12-25T11:17:30.503Z,4.90
2022-12-25T11:20:02.819Z,5.00
2022-12-25T11:22:32.255Z,5.10
2022-12-25T11:25:13.386Z,5.20
2022-12-25T11:27:41.553Z,5.40
2022-12-25T11:30:16.365Z,5.50
2022-12-25T11:32:52.358Z,5.50
2022-12-25T11:35:20.664Z,5.60
2022-12-25T11:37:52.656Z,5.60
2022-12-25T11:40:26.641Z,5.70
2022-12-25T11:43:07.816Z,5.70
2022-12-25T11:45:39.616Z,5.70
2022-12-25T11:48:16.244Z,5.70
2022-12-25T11:50:49.368Z,5.70
2022-12-25T11:53:23.335Z,5.80
2022-12-25T11:55:55.463Z,5.80
2022-12-25T11:58:27.831Z,5.70
2022-12-25T12:00:58.391Z,5.80
2022-12-25T12:03:30.373Z,5.80
2022-12-25T12:06:03.066Z,5.90
2022-12-25T12:08:33.899Z,5.90
2022-12-25T12:11:18.029Z,6.00
2022-12-25T12:14:01.210Z,6.10
2022-12-25T12:16:30.172Z,6.10
2022-12-25T12:18:58.315Z,6.30
2022-12-25T12:21:29.645Z,6.30
2022-12-25T12:24:08.700Z,6.30
2022-12-25T12:26:41.000Z,6.40
2022-12-25T12:29:23.216Z,6.40
2022-12-25T12:31:52.468Z,6.40
2022-12-25T12:34:25.157Z,6.40
2022-12-25T12:37:01.547Z,6.40
2022-12-25T12:39:36.857Z,6.40
2022-12-25T12:42:15.211Z,6.40
2022-12-25T12:44:43.951Z,6.30
2022-12-25T12:47:29.109Z,6.30
2022-12-25T12:50:01.894Z,6.30
2022-12-25T12:52:34.418Z,6.30
2022-12-25T12:55:05.950Z,6.30
2022-12-25T12:57:40.069Z,6.20
2022-12-25T13:00:16.745Z,6.20
2022-12-25T13:03:08.407Z,6.30
2022-12-25T13:05:41.774Z,6.30
2022-12-25T13:08:25.516Z,6.40
2022-12-25T13:11:06.348Z,6.40
2022-12-25T13:13:38.235Z,6.40
2022-12-25T13:16:07.465Z,6.40
2022-12-25T13:18:35.593Z,6.40
2022-12-25T13:21:09.274Z,6.40
2022-12-25T13:23:41.096Z,6.40
2022-12-25T13:26:16.949Z,6.40
2022-12-25T13:28:48.135Z,6.30
2022-12-25T13:31:20.416Z,6.30
2022-12-25T13:33:53.950Z,6.30
2022-12-25T13:36:22.169Z,6.30
2022-12-25T13:38:52.308Z,6.20
2022-12-25T13:41:44.644Z,6.20
2022-12-25T13:44:20.530Z,6.20
2022-12-25T13:46:48.925Z,6.10
2022-12-25T13:49:18.747Z,6.10
2022-12-25T13:51:47.201Z,6.10
2022-12-25T13:54:18.096Z,6.10
2022-12-25T13:56:52.963Z,6.10
2022-12-25T13:59:22.902Z,6.10
2022-12-25T14:01:51.855Z,6.10
2022-12-25T14:04:22.985Z,6.00
2022-12-25T14:06:52.897Z,6.00
2022-12-25T14:09:22.025Z,6.00
2022-12-25T14:11:56.507Z,6.00
2022-12-25T14:14:26.992Z,5.90
2022-12-25T14:16:58.774Z,5.90
2022-12-25T14:19:29.431Z,5.90
2022-12-25T14:22:01.195Z,5.80
2022-12-25T14:24:30.829Z,5.80
2022-12-25T14:27:02.078Z,5.80
2022-12-25T14:29:35.877Z,5.80
2022-12-25T14:32:07.228Z,5.70
2022-12-25T14:34:35.560Z,5.70
2022-12-25T14:37:05.327Z,5.70
2022-12-25T14:39:36.450Z,5.80
2022-12-25T14:42:14.462Z,5.80
2022-12-25T14:44:42.584Z,5.80
2022-12-25T14:47:18.042Z,5.80
2022-12-25T14:49:46.266Z,5.80
2022-12-25T14:52:20.617Z,5.70
2022-12-25T14:54:50.587Z,5.70
2022-12-25T14:57:27.036Z,5.70
2022-12-25T15:00:01.439Z,5.70
2022-12-25T15:02:41.697Z,5.60
2022-12-25T15:05:29.072Z,5.60
2022-12-25T15:08:03.348Z,5.60
2022-12-25T15:11:02.662Z,5.50
2022-12-25T15:13:21.803Z,5.50
2022-12-25T15:15:58.426Z,5.40
2022-12-25T15:18:29.205Z,5.40
2022-12-25T15:20:57.267Z,5.40
2022-12-25T15:23:25.860Z,5.40
2022-12-25T15:25:54.214Z,5.40
2022-12-25T15:28:23.807Z,5.40
2022-12-25T15:30:52.095Z,5.40
2022-12-25T15:33:43.939Z,5.50
2022-12-25T15:36:12.444Z,5.50
2022-12-25T15:38:40.500Z,5.50
2022-12-25T15:41:37.998Z,5.50
2022-12-25T15:44:08.331Z,5.60
2022-12-25T15:46:36.847Z,5.60
2022-12-25T15:49:04.947Z,5.60
2022-12-25T15:51:33.520Z,5.60
2022-12-25T15:54:01.750Z,5.60
2022-12-25T15:56:31.702Z,5.70
2022-12-25T15:59:01.424Z,5.60
2022-12-25T16:01:39.133Z,5.70
2022-12-25T16:04:07.335Z,5.80
2022-12-25T16:06:35.479Z,5.70
2022-12-25T16:09:03.656Z,5.80
2022-12-25T16:11:32.277Z,5.80
2022-12-25T16:14:05.525Z,5.90
2022-12-25T16:16:35.063Z,5.90
2022-12-25T16:19:05.469Z,5.90
2022-12-25T16:21:39.898Z,6.00
2022-12-25T16:24:08.772Z,6.00
2022-12-25T16:26:40.086Z,6.00
2022-12-25T16:29:08.817Z,6.10
2022-12-25T16:31:39.388Z,6.10
2022-12-25T16:34:08.249Z,6.10
2022-12-25T16:36:37.218Z,6.10
2022-12-25T16:39:06.030Z,6.10
2022-12-25T16:41:34.062Z,6.10
2022-12-25T16:44:09.385Z,6.20
2022-12-25T16:46:41.537Z,6.20
2022-12-25T16:49:09.833Z,6.20
2022-12-25T16:51:37.813Z,6.20
2022-12-25T16:54:06.254Z,6.30
2022-12-25T16:56:36.523Z,6.30
2022-12-25T16:59:04.555Z,6.30
2022-12-25T17:01:32.653Z,6.30
2022-12-25T17:04:02.637Z,6.30
2022-12-25T17:06:31.071Z,6.30
2022-12-25T17:09:02.349Z,6.30
2022-12-25T17:11:30.780Z,6.40
2022-12-25T17:13:59.834Z,6.40
2022-12-25T17:16:29.668Z,6.50
2022-12-25T17:19:01.166Z,6.50
2022-12-25T17:21:32.579Z,6.50
2022-12-25T17:24:03.543Z,6.50
2022-12-25T17:26:32.685Z,6.50
2022-12-25T17:29:01.387Z,6.60
2022-12-25T17:31:29.758Z,6.60
2022-12-25T17:33:57.750Z,6.70
2022-12-25T17:36:26.293Z,6.70
2022-12-25T17:38:55.750Z,6.70
2022-12-25T17:41:23.768Z,6.70
2022-12-25T17:43:53.088Z,6.70
2022-12-25T17:46:23.108Z,6.70
2022-12-25T17:48:51.974Z,6.70
2022-12-25T17:51:22.309Z,6.70
2022-12-25T17:53:51.983Z,6.70
2022-12-25T17:56:22.794Z,6.70
2022-12-25T17:58:52.628Z,6.80
2022-12-25T18:01:22.263Z,6.70
2022-12-25T18:03:50.987Z,6.70
2022-12-25T18:06:20.471Z,6.70
2022-12-25T18:08:49.681Z,6.80
2022-12-25T18:11:23.740Z,6.80
2022-12-25T18:13:53.559Z,6.80
2022-12-25T18:16:24.041Z,6.80
2022-12-25T18:18:52.985Z,6.80
2022-12-25T18:21:24.944Z,6.80
2022-12-25T18:23:53.627Z,6.80
2022-12-25T18:26:23.494Z,6.80
2022-12-25T18:28:51.830Z,6.80
2022-12-25T18:31:22.873Z,6.80
2022-12-25T18:33:51.789Z,6.70
2022-12-25T18:36:26.029Z,6.80
2022-12-25T18:38:55.711Z,6.80
2022-12-25T18:41:25.379Z,6.80
2022-12-25T18:43:55.868Z,6.80
2022-12-25T18:46:25.692Z,6.90
2022-12-25T18:48:53.900Z,6.90
2022-12-25T18:51:22.075Z,6.90
2022-12-25T18:53:51.131Z,6.90
2022-12-25T18:56:19.288Z,6.90
2022-12-25T18:58:49.193Z,6.90
2022-12-25T19:01:19.399Z,6.90
2022-12-25T19:03:49.060Z,7.00
2022-12-25T19:06:21.157Z,7.00
2022-12-25T19:08:49.308Z,7.00
2022-12-25T19:11:17.821Z,7.00
2022-12-25T19:13:46.150Z,6.90
2022-12-25T19:16:16.036Z,6.90
2022-12-25T19:18:44.994Z,6.90
2022-12-25T19:21:12.988Z,6.90
2022-12-25T19:23:41.017Z,6.90
2022-12-25T19:26:10.216Z,6.90
2022-12-25T19:28:39.168Z,7.00
2022-12-25T19:31:08.995Z,6.90
2022-12-25T19:33:40.254Z,7.00
2022-12-25T19:36:10.768Z,7.00
2022-12-25T19:38:38.782Z,7.00
2022-12-25T19:41:07.944Z,7.00
2022-12-25T19:43:39.416Z,7.00
2022-12-25T19:46:09.520Z,6.90
2022-12-25T19:48:39.052Z,7.00
2022-12-25T19:51:18.607Z,7.00
2022-12-25T19:53:47.120Z,7.00
2022-12-25T19:56:15.897Z,7.00
2022-12-25T19:58:44.361Z,7.00
2022-12-25T20:01:14.842Z,7.00
2022-12-25T20:03:46.390Z,7.00
2022-12-25T20:06:23.262Z,7.00
2022-12-25T20:08:53.592Z,7.00
2022-12-25T20:11:22.481Z,7.00
2022-12-25T20:13:51.101Z,7.00
2022-12-25T20:16:19.485Z,7.00
2022-12-25T20:18:48.996Z,7.00
2022-12-25T20:21:18.569Z,7.00
2022-12-25T20:23:48.164Z,7.00
2022-12-25T20:26:17.740Z,7.10
2022-12-25T20:28:47.875Z,7.10
2022-12-25T20:31:17.683Z,7.10
2022-12-25T20:33:46.613Z,7.10
2022-12-25T20:36:16.439Z,7.20
2022-12-25T20:38:44.481Z,7.20
2022-12-25T20:41:30.575Z,7.20
2022-12-25T20:43:59.325Z,7.20
2022-12-25T20:46:28.026Z,7.20
2022-12-25T20:48:56.189Z,7.20
2022-12-25T20:51:26.985Z,7.20
2022-12-25T20:53:55.959Z,7.20
2022-12-25T20:56:26.825Z,7.20
2022-12-25T20:58:55.729Z,7.20
2022-12-25T21:01:24.068Z,7.20
2022-12-25T21:03:52.422Z,7.20
2022-12-25T21:06:20.573Z,7.30
2022-12-25T21:08:50.357Z,7.30
2022-12-25T21:11:18.929Z,7.10
2022-12-25T21:13:47.353Z,7.20
2022-12-25T21:16:18.982Z,7.20
2022-12-25T21:18:48.094Z,7.20
2022-12-25T21:21:16.595Z,7.20
2022-12-25T21:23:45.654Z,7.20
2022-12-25T21:26:18.652Z,7.30
2022-12-25T21:28:47.109Z,7.30
2022-12-25T21:31:15.302Z,7.30
2022-12-25T21:33:54.830Z,7.30
2022-12-25T21:36:27.239Z,7.30
2022-12-25T21:38:57.139Z,6.80
2022-12-25T21:41:27.318Z,7.30
2022-12-25T21:43:55.548Z,7.30
2022-12-25T21:46:24.437Z,7.30
2022-12-25T21:48:52.564Z,7.30
2022-12-25T21:51:41.769Z,7.40
2022-12-25T21:54:10.416Z,7.40
2022-12-25T21:56:48.673Z,7.40
2022-12-25T21:59:19.179Z,7.30
2022-12-25T22:01:48.276Z,7.40
2022-12-25T22:04:18.550Z,7.40
2022-12-25T22:07:04.905Z,7.40
2022-12-25T22:09:33.807Z,7.50
2022-12-25T22:12:20.968Z,7.50
2022-12-25T22:14:59.163Z,7.60
2022-12-25T22:17:47.361Z,7.60
2022-12-25T22:20:17.727Z,7.60
2022-12-25T22:22:51.411Z,7.60
2022-12-25T22:25:21.114Z,7.60
2022-12-25T22:27:51.527Z,7.60
2022-12-25T22:30:21.905Z,7.70
2022-12-25T22:32:50.541Z,7.70
2022-12-25T22:35:19.760Z,7.70
2022-12-25T22:37:48.355Z,7.70
2022-12-25T22:40:18.929Z,7.70
2022-12-25T22:42:46.987Z,7.70
2022-12-25T22:45:16.694Z,7.70
2022-12-25T22:47:45.248Z,7.70
2022-12-25T22:50:19.619Z,7.80
2022-12-25T22:52:51.801Z,7.80
2022-12-25T22:55:20.296Z,7.80
2022-12-25T22:57:48.921Z,7.80
2022-12-25T23:00:18.377Z,7.90
2022-12-25T23:02:46.287Z,7.90
2022-12-25T23:05:14.354Z,7.90
2022-12-25T23:07:42.850Z,7.90
2022-12-25T23:10:11.449Z,7.90
2022-12-25T23:12:56.821Z,8.00
2022-12-25T23:15:27.664Z,8.00
2022-12-25T23:18:13.570Z,7.90
2022-12-25T23:20:59.604Z,7.90
2022-12-25T23:23:45.124Z,7.90
2022-12-25T23:26:14.422Z,7.90
2022-12-25T23:29:01.869Z,7.90
2022-12-25T23:31:36.489Z,7.90
2022-12-25T23:34:06.092Z,7.90
2022-12-25T23:36:34.317Z,8.00
2022-12-25T23:39:08.975Z,8.00
2022-12-25T23:41:38.789Z,8.00
2022-12-25T23:44:06.895Z,7.90
2022-12-25T23:46:37.099Z,8.00
2022-12-25T23:49:05.706Z,8.00
2022-12-25T23:51:35.628Z,8.00
2022-12-25T23:54:03.678Z,8.10
2022-12-25T23:56:31.684Z,8.10
2022-12-25T23:58:59.749Z,8.10
